Share

Alread, AR

Clinton (KCCA) Elev 515 ft | 35.60 °N, 92.45 °W | Change Station

Current weather conditions updated 23 minutes ago

Clear
Clear
66 °F
Feels Like 66 °F
N
0
Wind Variable Wind from North
Sunrise 6:33 AM
Sunset 7:45 PM
Moon Waning Gibbous

Today is forecast to be nearly the same temperature as yesterday.

Pressure 30.28 in
Visibility 7.0 miles
Clouds Clear
Dew Point 46 °F
Humidity 49%
Rainfall 0.00 in
Snow Depth Not available.
UV 6 out of 16
Pollen 9.60 out of 12
Air Quality Not available.
Flu Activity Sporadic
METAR KCCA 181515Z AUTO 00000KT 7SM CLR 19/08 A3028 RMK AO2

More Conditions Fewer Conditions

Pressure 30.28 in
Visibility 7.0 miles
Clouds Clear
Dew Point 46 °F
Humidity 49%
Rainfall 0.00 in
Snow Depth Not available.
UV 6 out of 16
Pollen 9.60 out of 12
Air Quality Not available.
Flu Activity Sporadic
METAR KCCA 181515Z AUTO 00000KT 7SM CLR 19/08 A3028 RMK AO2

More Conditions Fewer Conditions

10-Day Forecast

Almanac

Astronomy

Apr. 18, 2014 Rise Set
Actual Time 6:33 AM CDT 7:45 PM CDT
Civil Twilight 6:07 AM CDT 8:12 PM CDT
Nautical Twilight 5:35 AM CDT 8:43 PM CDT
Astronomical Twilight 5:02 AM CDT 9:16 PM CDT
Moon 11:26 PM CDT 9:00 AM CDT
Length of Visible Light 14h 05m
Length of Day
13h 12m
Tomorrow will be 2m 6s longer.
Waning Gibbous, 87% of the Moon is Illuminated
Today
Waning Gibbous
Apr 22
Last Quarter
Apr 29
New
May 6
First Quarter
May 14
Full

Today's Extremes

State Highs State Lows

Community

  • What's for Lunch?
    What's for Lunch?
  • SUNRISE THROUGH THE TREES.
    SUNRISE THROUGH THE TREES.
  • Dog Wood Blossoms
    Dog Wood Blossoms
  • Morning Light
    Morning Light
  • New Day
    New Day

WunderPhotos

Upload Photos

1,702,397 photos uploaded!

Nearby

Snow Depth

Station Depth Elevation
No new snow has been reported.

Coastal Water Temperatures

Place Temperature
No Stations Reporting

Earthquake Activity

City Distance Mag. Time & Date
No recent earthquake activity has been reported nearby.
Minimum magnitude displayed is 2.5.

Nearby Weather Stations

Station Location Temp. Dew Point Humidity Wind Precip. Elev Updated Type
Meadowcreek, Fox, AR 67.2 °F 47 °F 49% East  at  3.0 mph 0.00 in / hr 1014 ft 10:32 AM CDT Normal
KD5GMX Weather Network, Damascus, AR 66.9 °F 50 °F 54% West  at  4.0 mph 0.00 in / hr 696 ft 10:38 AM CDT Rapid Fire
RAWS ARMSTEAD MOUNTAIN AR, Tilly, AR 52 °F 43 °F 72% NE  at  2 mph 0.00 in / hr 959 ft 7:52 AM CDT MADIS
RAWS GUY AR, Guy, AR 57 °F 45 °F 64% NNE  at  2 mph 0.00 in / hr 609 ft 8:10 AM CDT MADIS
WWW.D-WX.COM (Eden Isle-Heber Springs), Heber Springs, AR 62.2 °F 48 °F 60% SSW  at  0.0 mph 0.00 in / hr 518 ft 10:34 AM CDT Normal

Show More Stations Show Fewer Stations

What do you think?

We're not finished. Please let us know what you like, what you don't like, and what you are still missing.